Time;durP1;ratioP1;P1;durP2;ratioP2;P2;SDS_P1;SDS_P2;PMS_P1;PMS_P2;Temp;Humidity;BMP_temperature;BMP_pressure;BME280_temperature;BME280_humidity;BME280_pressure;Samples;Min_cycle;Max_cycle;Signal;HPM_P1;HPM_P2
2021/12/14 00:02:17;;;;;;;17.15;12.73;;;6.30;99.90;;;;;;5072250;28;20436;-88
2021/12/14 00:04:43;;;;;;;17.50;13.55;;;6.20;99.90;;;;;;5072237;28;20032;-88
2021/12/14 00:07:14;;;;;;;16.02;12.82;;;6.30;99.90;;;;;;5090517;28;20408;-88
2021/12/14 00:09:42;;;;;;;18.63;14.23;;;6.30;99.90;;;;;;5090157;28;20039;-88
2021/12/14 00:17:25;;;;;;;19.00;13.60;;;6.30;99.90;;;;;;5091530;28;20426;-89
2021/12/14 00:19:53;;;;;;;19.27;13.15;;;6.30;99.90;;;;;;5091732;28;20434;-88
2021/12/14 00:22:29;;;;;;;20.20;13.57;;;6.30;99.90;;;;;;5073642;28;20048;-88
2021/12/14 00:24:56;;;;;;;19.20;13.88;;;6.30;99.90;;;;;;5091370;28;20043;-88
2021/12/14 00:27:23;;;;;;;18.70;14.27;;;6.20;99.90;;;;;;5091794;28;20016;-88
2021/12/14 00:29:54;;;;;;;17.60;13.85;;;6.20;99.90;;;;;;5073338;28;20044;-88
2021/12/14 00:32:24;;;;;;;18.48;13.18;;;6.20;99.90;;;;;;5073313;28;20027;-88
2021/12/14 00:34:53;;;;;;;21.10;14.65;;;6.20;99.90;;;;;;5073338;28;20020;-88
2021/12/14 00:37:22;;;;;;;20.00;14.23;;;6.20;99.90;;;;;;5091617;28;20020;-88
2021/12/14 00:39:49;;;;;;;19.40;14.52;;;6.10;99.90;;;;;;5073301;28;20139;-88
2021/12/14 00:42:16;;;;;;;19.42;13.73;;;6.10;99.90;;;;;;5073314;28;20035;-88
2021/12/14 00:44:42;;;;;;;19.50;13.45;;;6.10;99.90;;;;;;5091607;28;20024;-88
2021/12/14 00:47:08;;;;;;;17.95;13.35;;;6.10;99.90;;;;;;5091005;28;20312;-88
2021/12/14 00:49:34;;;;;;;16.80;13.10;;;6.10;99.90;;;;;;5091137;28;20063;-88
2021/12/14 00:52:03;;;;;;;20.17;13.85;;;6.10;99.90;;;;;;5091167;28;20047;-88
2021/12/14 00:54:31;;;;;;;19.45;14.10;;;6.10;99.90;;;;;;5091074;28;20228;-87
2021/12/14 00:56:57;;;;;;;19.48;13.57;;;6.10;99.90;;;;;;5090948;28;20070;-88
2021/12/14 00:59:23;;;;;;;20.55;14.15;;;6.10;99.90;;;;;;5090863;28;20024;-88
2021/12/14 01:01:51;;;;;;;18.02;13.05;;;6.10;99.90;;;;;;5090733;28;20027;-88
2021/12/14 01:04:22;;;;;;;18.58;13.23;;;6.10;99.90;;;;;;5072693;28;20032;-88
2021/12/14 01:06:48;;;;;;;17.23;12.88;;;6.10;99.90;;;;;;5090959;28;20012;-88
2021/12/14 01:09:22;;;;;;;17.75;12.88;;;6.10;99.90;;;;;;5073690;28;20043;-88
2021/12/14 01:11:51;;;;;;;16.55;12.32;;;6.10;99.90;;;;;;5090395;28;20047;-88
2021/12/14 01:14:32;;;;;;;19.25;13.02;;;6.00;99.90;;;;;;5072917;28;20047;-88
2021/12/14 01:17:11;;;;;;;19.77;12.77;;;6.00;99.90;;;;;;5090835;28;20016;-88
2021/12/14 01:19:42;;;;;;;18.35;12.90;;;6.00;99.90;;;;;;5091008;28;20076;-88
2021/12/14 01:25:08;;;;;;;16.60;12.82;;;6.00;99.90;;;;;;5090581;28;20384;-88
2021/12/14 01:27:52;;;;;;;19.00;13.15;;;6.00;99.90;;;;;;5071689;28;20035;-88
2021/12/14 01:30:31;;;;;;;22.35;14.63;;;5.90;99.90;;;;;;5093511;28;20032;-86
2021/12/14 01:33:02;;;;;;;22.55;15.55;;;5.90;99.90;;;;;;5093124;28;20059;-85
2021/12/14 01:35:32;;;;;;;19.38;14.52;;;5.90;99.90;;;;;;5075321;28;20076;-86
2021/12/14 01:38:47;;;;;;;18.25;13.95;;;5.90;99.90;;;;;;5075145;28;20059;-86
2021/12/14 01:40:53;;;;;;;20.48;14.45;;;5.80;99.90;;;;;;5082384;28;20119;-86
2021/12/14 01:43:42;;;;;;;19.88;15.18;;;5.80;99.90;;;;;;5094357;28;20039;-86
2021/12/14 01:46:22;;;;;;;20.52;14.02;;;5.80;99.90;;;;;;5075644;28;20690;-86
2021/12/14 01:48:50;;;;;;;18.83;14.13;;;5.80;99.90;;;;;;5094552;28;20032;-86
2021/12/14 01:51:16;;;;;;;18.00;12.90;;;5.80;99.90;;;;;;5094628;28;20031;-86
2021/12/14 01:53:45;;;;;;;18.30;13.38;;;5.70;99.90;;;;;;5076468;28;20077;-85
2021/12/14 01:56:18;;;;;;;17.10;13.40;;;5.70;99.90;;;;;;5076203;28;20024;-86
2021/12/14 01:58:54;;;;;;;17.33;12.70;;;5.70;99.90;;;;;;5094331;28;20016;-86
2021/12/14 02:01:24;;;;;;;16.42;11.18;;;5.70;99.90;;;;;;5094381;28;20024;-86
2021/12/14 02:03:54;;;;;;;15.02;11.50;;;5.70;99.90;;;;;;5094210;28;20553;-86
2021/12/14 02:06:25;;;;;;;18.20;12.35;;;5.70;99.90;;;;;;5076215;28;20028;-86
2021/12/14 02:09:16;;;;;;;18.08;12.60;;;5.60;99.90;;;;;;5094577;28;20099;-86
2021/12/14 02:11:51;;;;;;;18.85;12.52;;;5.60;99.90;;;;;;5094194;28;20028;-85
2021/12/14 02:14:18;;;;;;;17.35;12.52;;;5.60;99.90;;;;;;5075986;28;20530;-86
2021/12/14 02:16:48;;;;;;;16.10;11.82;;;5.60;99.90;;;;;;5093750;28;20027;-86
2021/12/14 02:19:15;;;;;;;14.65;11.07;;;5.60;99.90;;;;;;5075582;28;20127;-86
2021/12/14 02:21:43;;;;;;;17.92;12.45;;;5.60;99.90;;;;;;5093888;28;20073;-86
2021/12/14 02:24:11;;;;;;;19.38;14.02;;;5.60;99.90;;;;;;5094138;28;20097;-86
2021/12/14 02:26:41;;;;;;;18.13;13.38;;;5.50;99.90;;;;;;5093987;28;20502;-86
2021/12/14 02:29:08;;;;;;;22.60;15.13;;;5.50;99.90;;;;;;5093743;28;20032;-86
2021/12/14 02:31:38;;;;;;;17.48;13.63;;;5.50;99.90;;;;;;5093647;28;20012;-85
2021/12/14 02:34:06;;;;;;;19.83;14.25;;;5.40;99.90;;;;;;5093371;28;20028;-86
2021/12/14 02:36:44;;;;;;;16.75;12.85;;;5.40;99.90;;;;;;5058682;28;20024;-86
2021/12/14 02:39:24;;;;;;;18.13;13.77;;;5.50;99.90;;;;;;5075481;28;20119;-86
2021/12/14 02:41:58;;;;;;;16.73;13.70;;;5.50;99.90;;;;;;5093903;28;20453;-86
2021/12/14 02:44:24;;;;;;;23.87;15.27;;;5.50;99.90;;;;;;5093833;28;20099;-86
2021/12/14 02:47:03;;;;;;;21.35;14.30;;;5.50;99.90;;;;;;5093409;28;20048;-86
2021/12/14 02:49:31;;;;;;;18.42;13.85;;;5.40;99.90;;;;;;5075020;28;20067;-86
2021/12/14 02:52:03;;;;;;;18.60;13.25;;;5.50;99.90;;;;;;5075072;28;20035;-86
2021/12/14 02:54:32;;;;;;;17.27;12.98;;;5.50;99.90;;;;;;5093182;28;20020;-86
2021/12/14 02:57:07;;;;;;;16.50;13.77;;;5.50;99.90;;;;;;5093355;28;20028;-88
2021/12/14 02:59:38;;;;;;;18.92;13.52;;;5.50;99.90;;;;;;5093512;28;20035;-86
2021/12/14 03:02:10;;;;;;;15.93;12.55;;;5.60;99.90;;;;;;5093409;28;20114;-86
2021/12/14 03:04:42;;;;;;;17.65;12.32;;;5.60;99.90;;;;;;5093210;28;20020;-86
2021/12/14 03:07:08;;;;;;;18.63;11.63;;;5.50;99.90;;;;;;5075082;28;20024;-86
2021/12/14 03:12:22;;;;;;;14.77;11.35;;;5.40;99.90;;;;;;5093154;28;20069;-86
2021/12/14 03:15:04;;;;;;;15.18;11.90;;;5.40;99.90;;;;;;5093125;28;20028;-86
2021/12/14 03:17:30;;;;;;;17.67;12.50;;;5.30;99.90;;;;;;5092739;28;20024;-85
2021/12/14 03:20:00;;;;;;;16.23;11.93;;;5.30;99.90;;;;;;5093057;28;20376;-86
2021/12/14 03:23:06;;;;;;;17.63;12.13;;;5.30;99.90;;;;;;5074586;28;20032;-86
2021/12/14 03:25:35;;;;;;;16.23;11.90;;;5.30;99.90;;;;;;5074371;28;20054;-86
2021/12/14 03:28:01;;;;;;;17.05;12.10;;;5.30;99.90;;;;;;5074209;28;20116;-86
2021/12/14 03:30:27;;;;;;;17.13;11.77;;;5.30;99.90;;;;;;5092528;28;20099;-86
2021/12/14 03:32:59;;;;;;;18.55;12.45;;;5.40;99.90;;;;;;5092368;28;20020;-85
2021/12/14 03:35:41;;;;;;;20.80;13.35;;;5.40;99.90;;;;;;5093238;28;20103;-86
2021/12/14 03:38:22;;;;;;;16.63;11.85;;;5.30;99.90;;;;;;5074267;28;20446;-86
2021/12/14 03:41:03;;;;;;;16.23;11.15;;;5.30;99.90;;;;;;5074569;28;20114;-86
2021/12/14 03:43:29;;;;;;;17.23;11.10;;;5.40;99.90;;;;;;5074421;28;20111;-86
2021/12/14 03:45:56;;;;;;;19.40;12.50;;;5.30;99.90;;;;;;5074106;28;20095;-86
2021/12/14 03:48:27;;;;;;;16.98;12.25;;;5.40;99.90;;;;;;5073737;28;20079;-86
2021/12/14 03:50:53;;;;;;;17.50;11.57;;;5.30;99.90;;;;;;5092224;28;20054;-86
2021/12/14 03:53:21;;;;;;;18.83;11.85;;;5.30;99.90;;;;;;5074112;28;20016;-86
2021/12/14 03:55:58;;;;;;;20.35;11.98;;;5.30;99.90;;;;;;5074448;28;20141;-88
2021/12/14 03:58:30;;;;;;;18.90;12.73;;;5.30;99.90;;;;;;5074155;28;20031;-87
2021/12/14 04:01:01;;;;;;;16.17;11.30;;;5.20;99.90;;;;;;5073771;28;20388;-88
2021/12/14 04:03:29;;;;;;;16.25;10.98;;;5.20;99.90;;;;;;5091948;28;20012;-86
2021/12/14 04:05:56;;;;;;;17.33;11.40;;;5.20;99.90;;;;;;5091843;28;20020;-86
2021/12/14 04:08:23;;;;;;;15.32;11.35;;;5.10;99.90;;;;;;5073862;28;20398;-86
2021/12/14 04:10:50;;;;;;;17.70;10.85;;;5.20;99.90;;;;;;5092319;28;20149;-85
2021/12/14 04:13:19;;;;;;;17.13;11.82;;;5.20;99.90;;;;;;5091991;28;20024;-85
2021/12/14 04:15:46;;;;;;;15.13;11.05;;;5.30;99.90;;;;;;5091818;28;20016;-85
2021/12/14 04:18:12;;;;;;;14.93;10.45;;;5.30;99.90;;;;;;5091731;28;20138;-85
2021/12/14 04:20:41;;;;;;;14.45;10.70;;;5.30;99.90;;;;;;5091713;28;20099;-85
2021/12/14 04:23:20;;;;;;;13.93;10.20;;;5.30;99.90;;;;;;5091565;28;20069;-85
2021/12/14 04:25:47;;;;;;;12.85;9.70;;;5.30;99.90;;;;;;5091718;28;20031;-85
2021/12/14 04:28:16;;;;;;;15.15;10.05;;;5.40;99.90;;;;;;5091616;28;20031;-86
2021/12/14 04:30:43;;;;;;;15.63;10.95;;;5.30;99.90;;;;;;5091711;28;20099;-86
2021/12/14 04:33:14;;;;;;;15.80;10.63;;;5.20;99.90;;;;;;5073120;28;20024;-85
2021/12/14 04:35:42;;;;;;;18.65;12.02;;;5.20;99.90;;;;;;5073497;28;20036;-85
2021/12/14 04:38:17;;;;;;;14.90;11.27;;;5.20;99.90;;;;;;5091543;28;20019;-85
2021/12/14 04:51:59;;;;;;;14.98;10.95;;;5.20;99.90;;;;;;5091450;28;20035;-86
2021/12/14 04:54:55;;;;;;;17.23;10.95;;;5.20;99.90;;;;;;5072954;28;20028;-86
2021/12/14 04:57:33;;;;;;;15.30;11.02;;;5.20;99.90;;;;;;5072875;28;20024;-86
2021/12/14 05:00:28;;;;;;;15.90;10.13;;;5.20;99.90;;;;;;5091022;28;20159;-85
2021/12/14 05:02:57;;;;;;;15.52;9.73;;;5.10;99.90;;;;;;5071941;28;20024;-86
2021/12/14 05:05:29;;;;;;;16.27;11.30;;;5.00;99.90;;;;;;5091214;28;20028;-86
2021/12/14 05:11:07;;;;;;;15.38;10.93;;;5.00;99.90;;;;;;5059299;28;20040;-86
2021/12/14 05:13:43;;;;;;;18.00;11.30;;;4.90;99.90;;;;;;5090902;28;20016;-86
2021/12/14 05:16:21;;;;;;;18.23;11.85;;;4.90;99.90;;;;;;5090977;28;20119;-86
2021/12/14 05:18:48;;;;;;;17.55;10.85;;;4.80;99.90;;;;;;5090645;28;20024;-86
2021/12/14 05:21:32;;;;;;;18.42;11.82;;;4.80;99.90;;;;;;5090624;28;20024;-86
2021/12/14 05:23:59;;;;;;;17.23;12.48;;;4.80;99.90;;;;;;5072766;28;20031;-86
2021/12/14 05:26:25;;;;;;;16.38;11.43;;;4.60;99.90;;;;;;5090744;28;20020;-86
2021/12/14 05:28:53;;;;;;;15.52;11.38;;;4.60;99.90;;;;;;5072475;28;20043;-86
2021/12/14 05:31:19;;;;;;;364.33;32.22;;;4.50;99.90;;;;;;5072893;28;20098;-86
2021/12/14 05:33:44;;;;;;;16.17;11.27;;;4.60;99.90;;;;;;5090278;28;20027;-86
2021/12/14 05:36:16;;;;;;;17.45;11.70;;;4.60;99.90;;;;;;5090383;28;20032;-87
2021/12/14 05:43:58;;;;;;;16.80;11.73;;;4.60;99.90;;;;;;5090520;28;20486;-86
2021/12/14 05:46:25;;;;;;;15.27;11.35;;;4.50;99.90;;;;;;5090486;28;20055;-86
2021/12/14 05:49:01;;;;;;;16.80;10.20;;;4.50;99.90;;;;;;5090237;28;20044;-86
2021/12/14 05:51:30;;;;;;;13.63;10.50;;;4.60;99.90;;;;;;5090373;28;20032;-86
2021/12/14 05:53:56;;;;;;;15.55;10.95;;;4.50;99.90;;;;;;5071895;28;20111;-86
2021/12/14 05:56:26;;;;;;;14.70;10.77;;;4.60;99.90;;;;;;5072041;28;20025;-87
2021/12/14 05:58:54;;;;;;;14.77;10.10;;;4.50;99.90;;;;;;5072095;28;20027;-87
2021/12/14 06:01:23;;;;;;;13.70;9.73;;;4.50;99.90;;;;;;5072579;28;20093;-86
2021/12/14 06:03:56;;;;;;;13.98;10.27;;;4.60;99.90;;;;;;5090423;28;20099;-86
2021/12/14 06:06:32;;;;;;;12.90;9.63;;;4.60;99.90;;;;;;5072209;28;20028;-86
2021/12/14 06:09:04;;;;;;;14.07;9.73;;;4.60;99.90;;;;;;5071970;28;20101;-86
2021/12/14 06:11:29;;;;;;;14.77;9.88;;;4.60;99.90;;;;;;5072013;28;20020;-86
2021/12/14 06:13:56;;;;;;;13.30;10.02;;;4.60;99.90;;;;;;5090892;28;20020;-86
2021/12/14 06:16:26;;;;;;;13.07;9.77;;;4.60;99.90;;;;;;5076660;28;20123;-86
2021/12/14 06:18:53;;;;;;;11.45;8.85;;;4.60;99.90;;;;;;5076063;28;20063;-86
2021/12/14 06:21:31;;;;;;;12.50;9.70;;;4.60;99.90;;;;;;5076118;28;20020;-86
2021/12/14 06:24:05;;;;;;;28.77;11.00;;;4.60;99.90;;;;;;5093909;28;20027;-86
2021/12/14 06:26:45;;;;;;;15.45;10.00;;;4.50;99.90;;;;;;5075657;28;20480;-86
2021/12/14 06:29:36;;;;;;;12.55;9.18;;;4.50;99.90;;;;;;5093866;28;20036;-86
2021/12/14 06:32:08;;;;;;;15.13;9.55;;;4.40;99.90;;;;;;5075495;28;20019;-85
2021/12/14 06:34:34;;;;;;;14.55;11.00;;;4.40;99.90;;;;;;5093849;28;20028;-85
2021/12/14 06:37:30;;;;;;;16.60;10.75;;;4.30;99.90;;;;;;5075917;28;20020;-86
2021/12/14 06:40:28;;;;;;;12.73;10.35;;;4.20;99.90;;;;;;5094983;28;20016;-86
2021/12/14 06:43:00;;;;;;;14.43;9.52;;;4.30;99.90;;;;;;5093245;28;20020;-86
2021/12/14 06:45:28;;;;;;;12.80;9.15;;;4.30;99.90;;;;;;5093538;28;20566;-86
2021/12/14 06:48:00;;;;;;;13.55;9.55;;;4.40;99.90;;;;;;5075034;28;20052;-86
2021/12/14 06:50:33;;;;;;;12.07;8.70;;;4.40;99.90;;;;;;5075355;28;20056;-86
2021/12/14 06:53:04;;;;;;;12.10;8.87;;;4.30;99.90;;;;;;5071370;28;20039;-86
2021/12/14 06:55:32;;;;;;;12.25;8.73;;;4.30;99.90;;;;;;5074557;28;20101;-86
2021/12/14 06:58:13;;;;;;;11.00;8.13;;;4.30;99.90;;;;;;5069111;28;20428;-86
2021/12/14 07:00:46;;;;;;;13.52;8.43;;;4.30;99.90;;;;;;5073921;28;20029;-86
2021/12/14 07:03:12;;;;;;;12.18;8.90;;;4.30;99.90;;;;;;5070577;28;20269;-86
2021/12/14 07:05:40;;;;;;;13.10;9.15;;;4.30;99.90;;;;;;5052910;28;20016;-86
2021/12/14 07:08:14;;;;;;;12.25;9.10;;;4.40;99.90;;;;;;5074110;28;20508;-86
2021/12/14 07:10:43;;;;;;;10.93;8.32;;;4.40;99.90;;;;;;5071920;28;20032;-86
2021/12/14 07:13:14;;;;;;;12.32;9.20;;;4.40;99.90;;;;;;5070817;28;20242;-86
2021/12/14 07:15:40;;;;;;;12.02;8.85;;;4.40;99.90;;;;;;5072469;28;20175;-86
2021/12/14 07:18:08;;;;;;;12.07;9.75;;;4.50;99.90;;;;;;5074752;28;20017;-86
2021/12/14 07:20:43;;;;;;;11.88;9.63;;;4.50;99.90;;;;;;5075612;28;20027;-86
2021/12/14 07:23:32;;;;;;;13.18;9.35;;;4.50;99.90;;;;;;5075210;28;20032;-85
2021/12/14 07:26:10;;;;;;;13.80;10.32;;;4.40;99.90;;;;;;5054945;28;20401;-86
2021/12/14 07:28:39;;;;;;;13.30;10.05;;;4.30;99.90;;;;;;5072506;28;20028;-85
2021/12/14 07:31:14;;;;;;;18.35;11.80;;;4.30;99.90;;;;;;5072517;28;20403;-88
2021/12/14 07:33:45;;;;;;;22.70;14.00;;;4.30;99.90;;;;;;5054718;28;20016;-86
2021/12/14 07:36:19;;;;;;;34.53;19.25;;;4.20;99.90;;;;;;5054246;28;20029;-86
2021/12/14 07:38:50;;;;;;;26.95;15.52;;;4.20;99.90;;;;;;5072558;28;20055;-86
2021/12/14 07:41:15;;;;;;;20.88;11.85;;;4.10;99.90;;;;;;5072458;28;20051;-86
2021/12/14 07:43:52;;;;;;;133.18;22.63;;;4.10;99.90;;;;;;5072513;28;20106;-86
2021/12/14 07:46:48;;;;;;;24.38;11.15;;;4.20;99.90;;;;;;5053161;28;20040;-86
2021/12/14 07:49:27;;;;;;;15.35;8.30;;;4.20;99.90;;;;;;5072574;28;20024;-87
2021/12/14 07:51:59;;;;;;;10.40;7.53;;;4.20;99.90;;;;;;5054704;28;20067;-86
2021/12/14 07:54:33;;;;;;;14.10;8.02;;;4.10;99.90;;;;;;5071820;28;20492;-87
2021/12/14 07:57:05;;;;;;;12.70;8.00;;;4.10;99.90;;;;;;5054056;28;20393;-87
2021/12/14 07:59:35;;;;;;;12.02;7.70;;;4.10;99.90;;;;;;5067542;28;20082;-87
2021/12/14 08:02:18;;;;;;;10.18;6.70;;;4.20;99.90;;;;;;5071743;28;20021;-87
2021/12/14 08:04:51;;;;;;;8.13;6.18;;;4.20;99.90;;;;;;5071698;28;20024;-87
2021/12/14 08:07:30;;;;;;;8.35;6.20;;;4.30;99.90;;;;;;5071677;28;20012;-87
2021/12/14 08:10:14;;;;;;;9.02;5.60;;;4.30;99.90;;;;;;5071668;28;20040;-87
2021/12/14 08:12:51;;;;;;;7.22;5.35;;;4.30;99.90;;;;;;5071833;28;20099;-87
2021/12/14 08:15:17;;;;;;;7.63;5.47;;;4.20;99.90;;;;;;5071807;28;20028;-87
2021/12/14 08:17:47;;;;;;;9.63;5.40;;;4.10;99.90;;;;;;5053492;28;20381;-87
2021/12/14 08:20:23;;;;;;;21.13;6.20;;;4.20;99.90;;;;;;5071433;28;20016;-88
2021/12/14 08:22:49;;;;;;;7.38;5.68;;;4.10;99.90;;;;;;5071512;28;20047;-88
2021/12/14 08:25:21;;;;;;;9.55;6.30;;;4.20;99.90;;;;;;5054718;28;20021;-88
2021/12/14 08:27:47;;;;;;;7.15;4.90;;;4.10;99.90;;;;;;5053788;28;20120;-88
2021/12/14 08:30:15;;;;;;;8.88;6.05;;;4.20;99.90;;;;;;5071370;28;20124;-87
2021/12/14 08:32:42;;;;;;;11.15;5.75;;;4.20;99.90;;;;;;5071330;28;20016;-88
2021/12/14 08:35:11;;;;;;;8.30;5.05;;;4.30;99.90;;;;;;5053594;28;20408;-88
2021/12/14 08:37:44;;;;;;;8.45;5.07;;;4.30;99.90;;;;;;5070952;28;20028;-87
2021/12/14 08:40:15;;;;;;;12.85;4.80;;;4.40;99.90;;;;;;5071466;28;20287;-87
2021/12/14 08:43:01;;;;;;;9.95;5.00;;;4.40;99.90;;;;;;5071432;28;20024;-87
2021/12/14 08:45:35;;;;;;;11.07;5.10;;;4.40;99.90;;;;;;5071078;28;20517;-87
2021/12/14 08:48:18;;;;;;;7.15;5.22;;;4.50;99.90;;;;;;5070698;28;20053;-88
2021/12/14 08:50:53;;;;;;;6.13;4.65;;;4.60;99.90;;;;;;5070412;28;20536;-88
2021/12/14 08:53:22;;;;;;;11.85;5.20;;;4.60;99.90;;;;;;5070287;28;20485;-88
2021/12/14 08:55:51;;;;;;;10.85;6.20;;;4.80;99.90;;;;;;5070416;28;20031;-88
2021/12/14 08:58:18;;;;;;;10.25;6.25;;;4.80;99.90;;;;;;5070262;28;20059;-88
2021/12/14 09:00:49;;;;;;;9.77;6.20;;;4.90;99.90;;;;;;5070361;28;20115;-88
2021/12/14 09:03:23;;;;;;;10.52;6.10;;;5.00;99.90;;;;;;5069839;28;20023;-88
2021/12/14 09:05:50;;;;;;;10.10;5.60;;;5.00;99.90;;;;;;5052154;28;20048;-87
2021/12/14 09:08:19;;;;;;;9.98;6.07;;;5.20;99.90;;;;;;5069836;28;20032;-88
2021/12/14 09:10:48;;;;;;;9.55;6.03;;;5.30;99.90;;;;;;5070062;28;20373;-88
2021/12/14 09:13:15;;;;;;;17.58;6.45;;;5.30;99.90;;;;;;5070219;28;20032;-88
2021/12/14 09:15:45;;;;;;;11.40;6.38;;;5.30;99.90;;;;;;5051948;28;20074;-88
2021/12/14 09:18:12;;;;;;;11.40;6.60;;;5.40;99.90;;;;;;5069717;28;20099;-88
2021/12/14 09:20:45;;;;;;;8.75;6.70;;;5.50;99.90;;;;;;5070956;28;20052;-88
2021/12/14 09:23:23;;;;;;;17.77;8.18;;;5.60;99.90;;;;;;5070754;28;20032;-88
2021/12/14 09:25:50;;;;;;;9.68;6.43;;;5.60;99.90;;;;;;5073288;28;20052;-88
2021/12/14 09:28:16;;;;;;;30.17;7.10;;;5.70;99.90;;;;;;5082904;28;20029;-87
2021/12/14 09:30:48;;;;;;;14.80;6.50;;;5.80;99.90;;;;;;5083618;28;20051;-87
2021/12/14 09:33:15;;;;;;;7.78;6.05;;;5.90;99.90;;;;;;5064351;28;20092;-87
2021/12/14 09:35:43;;;;;;;11.63;5.80;;;5.90;99.90;;;;;;5080476;28;20024;-87
2021/12/14 09:38:12;;;;;;;18.63;8.93;;;6.00;99.90;;;;;;5081893;28;20025;-87
2021/12/14 09:40:51;;;;;;;8.52;6.22;;;6.10;99.90;;;;;;5086053;28;20492;-88
2021/12/14 09:43:19;;;;;;;8.00;6.43;;;6.10;99.90;;;;;;5096244;28;20013;-88
2021/12/14 09:45:50;;;;;;;12.10;6.50;;;6.20;99.90;;;;;;5096136;28;20009;-88
2021/12/14 09:48:21;;;;;;;12.25;7.07;;;6.20;99.90;;;;;;5095884;28;20043;-88
2021/12/14 09:50:48;;;;;;;14.82;9.93;;;6.30;99.90;;;;;;5099266;28;20020;-88
2021/12/14 09:53:19;;;;;;;11.00;6.95;;;6.40;99.90;;;;;;5099141;28;20036;-88
2021/12/14 09:55:47;;;;;;;9.77;6.13;;;6.40;99.90;;;;;;5099964;28;20012;-88
2021/12/14 09:58:21;;;;;;;10.80;7.10;;;6.50;99.90;;;;;;5099973;28;20029;-88
2021/12/14 10:00:56;;;;;;;14.25;7.93;;;6.60;99.90;;;;;;5082473;28;20017;-88
2021/12/14 10:03:23;;;;;;;11.23;7.38;;;6.60;99.90;;;;;;5099843;28;20036;-87
2021/12/14 10:05:54;;;;;;;13.75;7.53;;;6.60;99.90;;;;;;5081115;28;20093;-88
2021/12/14 10:08:25;;;;;;;10.52;7.20;;;6.80;99.90;;;;;;5055069;28;20056;-88
2021/12/14 10:11:01;;;;;;;11.65;6.93;;;6.80;99.90;;;;;;5073025;28;20610;-88
2021/12/14 10:13:28;;;;;;;8.10;5.82;;;6.80;99.90;;;;;;5055156;28;20020;-88
2021/12/14 10:15:55;;;;;;;7.88;6.25;;;6.90;99.90;;;;;;5073244;28;20032;-88
2021/12/14 10:18:31;;;;;;;11.00;7.10;;;6.90;99.90;;;;;;5072856;28;20024;-88
2021/12/14 10:21:06;;;;;;;10.63;7.45;;;7.00;99.90;;;;;;5073045;28;20016;-88
2021/12/14 10:23:34;;;;;;;8.95;6.80;;;7.20;99.90;;;;;;5072807;28;20524;-88
2021/12/14 10:26:00;;;;;;;8.85;6.38;;;7.30;99.90;;;;;;5072931;28;20252;-88
2021/12/14 10:28:27;;;;;;;7.90;6.40;;;7.40;99.90;;;;;;5072614;28;20252;-88
2021/12/14 10:30:59;;;;;;;10.35;6.65;;;7.40;99.90;;;;;;5072767;28;20035;-88
2021/12/14 10:33:28;;;;;;;7.97;6.50;;;7.40;99.90;;;;;;5072651;28;20473;-88
2021/12/14 10:36:16;;;;;;;15.43;7.20;;;7.40;99.90;;;;;;5072796;28;20150;-88
2021/12/14 10:39:04;;;;;;;11.27;7.28;;;7.30;99.90;;;;;;5072756;28;20020;-88
2021/12/14 10:44:12;;;;;;;;;;;7.50;99.90;;;;;;5073286;28;20069;-89
2021/12/14 10:46:45;;;;;;;10.55;6.40;;;7.60;99.90;;;;;;5072462;28;19916;-89
2021/12/14 10:49:13;;;;;;;8.68;7.00;;;7.70;99.90;;;;;;5057574;28;20531;-89
2021/12/14 10:51:42;;;;;;;11.10;7.40;;;7.80;99.90;;;;;;5075407;28;20017;-89
2021/12/14 10:54:12;;;;;;;11.00;6.65;;;7.80;99.90;;;;;;5055668;28;20035;-88
2021/12/14 10:56:44;;;;;;;7.95;5.50;;;7.80;99.90;;;;;;5073465;28;20009;-88
2021/12/14 10:59:13;;;;;;;8.38;6.05;;;7.80;99.90;;;;;;5073528;28;20112;-89
2021/12/14 11:01:42;;;;;;;8.82;6.93;;;7.90;99.90;;;;;;5072409;28;20024;-89
2021/12/14 11:04:11;;;;;;;9.77;6.40;;;7.90;99.90;;;;;;5055602;28;20119;-89
2021/12/14 11:06:42;;;;;;;8.45;6.65;;;7.80;99.90;;;;;;5055200;28;20516;-89
2021/12/14 11:11:46;;;;;;;8.40;6.18;;;7.80;99.90;;;;;;5073264;28;20017;-89
2021/12/14 11:14:17;;;;;;;10.75;7.30;;;7.90;99.90;;;;;;5055533;28;20035;-89
2021/12/14 11:19:55;;;;;;;13.25;8.07;;;8.00;99.90;;;;;;5093308;28;20109;-89
2021/12/14 11:22:26;;;;;;;10.90;7.35;;;7.90;99.90;;;;;;5093419;28;20396;-89
2021/12/14 11:25:20;;;;;;;15.82;7.13;;;7.90;99.90;;;;;;5092982;28;20089;-89
2021/12/14 11:27:48;;;;;;;;;;;7.80;99.90;;;;;;5090601;28;20040;-88
2021/12/14 11:30:20;;;;;;;8.75;6.47;;;7.90;99.90;;;;;;5075982;28;20431;-89
2021/12/14 11:33:00;;;;;;;15.20;8.13;;;8.00;99.90;;;;;;5074825;28;20024;-89
2021/12/14 11:35:28;;;;;;;9.23;6.55;;;8.20;99.90;;;;;;5092902;28;20119;-89
2021/12/14 11:37:56;;;;;;;12.50;8.82;;;8.30;99.90;;;;;;5093122;28;20542;-88
2021/12/14 11:40:26;;;;;;;16.83;10.43;;;8.30;99.90;;;;;;5092743;28;20024;-88
2021/12/14 11:43:07;;;;;;;25.13;14.68;;;8.40;99.90;;;;;;5092574;28;20027;-88
2021/12/14 11:45:37;;;;;;;14.90;11.77;;;8.50;99.90;;;;;;5090957;28;20031;-88
2021/12/14 11:48:03;;;;;;;16.20;11.02;;;8.50;99.90;;;;;;5054219;28;20037;-88
2021/12/14 11:50:44;;;;;;;11.02;8.75;;;8.70;99.90;;;;;;5053062;28;20090;-89
2021/12/14 11:53:11;;;;;;;14.10;8.38;;;8.60;99.90;;;;;;5070496;28;20035;-88
2021/12/14 11:55:59;;;;;;;13.63;8.27;;;8.60;99.90;;;;;;5070681;28;20067;-88
2021/12/14 11:58:43;;;;;;;14.55;9.55;;;8.60;99.90;;;;;;5070792;28;20056;-88
2021/12/14 12:01:29;;;;;;;11.32;7.30;;;8.50;99.90;;;;;;5070671;28;20185;-88
2021/12/14 12:04:07;;;;;;;11.50;8.10;;;8.50;99.90;;;;;;5070366;28;20025;-88
2021/12/14 12:09:37;;;;;;;8.43;5.95;;;8.60;99.90;;;;;;5071733;28;20542;-88
2021/12/14 12:12:07;;;;;;;8.63;6.80;;;8.70;99.90;;;;;;5071295;28;20020;-89
2021/12/14 12:14:54;;;;;;;8.48;5.97;;;8.80;99.90;;;;;;5071823;28;20027;-88
2021/12/14 12:17:23;;;;;;;10.65;7.03;;;8.80;99.90;;;;;;5072012;28;20038;-88
2021/12/14 12:19:59;;;;;;;10.40;8.15;;;8.80;99.90;;;;;;5071769;28;20032;-88
2021/12/14 12:22:29;;;;;;;11.57;8.00;;;8.90;99.90;;;;;;5071972;28;20048;-88
2021/12/14 12:24:57;;;;;;;12.98;8.30;;;9.00;99.90;;;;;;5072079;28;20074;-89
2021/12/14 12:27:49;;;;;;;17.83;8.27;;;9.20;99.90;;;;;;5071451;28;20028;-88
2021/12/14 12:30:32;;;;;;;9.18;7.47;;;9.30;99.90;;;;;;5053622;28;20068;-88
2021/12/14 12:33:25;;;;;;;14.10;7.15;;;9.30;99.90;;;;;;5071371;28;20021;-89
2021/12/14 12:36:04;;;;;;;8.82;6.78;;;9.40;99.90;;;;;;5053402;28;20040;-89
2021/12/14 12:38:32;;;;;;;15.18;7.15;;;9.40;99.90;;;;;;5071611;28;20031;-89
2021/12/14 12:41:10;;;;;;;16.38;8.30;;;9.20;99.90;;;;;;5071566;28;20029;-88
2021/12/14 12:43:51;;;;;;;11.07;8.40;;;9.10;99.90;;;;;;5055317;28;20494;-89
2021/12/14 12:46:25;;;;;;;12.70;7.38;;;9.20;99.90;;;;;;5071432;28;20012;-88
2021/12/14 12:48:56;;;;;;;9.43;6.82;;;9.20;99.90;;;;;;5070950;28;20044;-88
2021/12/14 12:51:43;;;;;;;13.00;8.90;;;8.90;99.90;;;;;;5070637;28;20020;-89
2021/12/14 12:54:25;;;;;;;13.57;8.20;;;8.90;99.90;;;;;;5070247;28;20049;-88
2021/12/14 12:57:28;;;;;;;12.18;8.52;;;9.00;99.90;;;;;;5070279;28;20095;-89
2021/12/14 13:00:00;;;;;;;9.38;7.50;;;8.90;99.90;;;;;;5070513;28;20046;-89
2021/12/14 13:02:30;;;;;;;9.63;7.97;;;8.90;99.90;;;;;;5052453;28;20159;-90
2021/12/14 13:05:05;;;;;;;11.57;8.95;;;8.90;99.90;;;;;;5070651;28;20515;-89
2021/12/14 13:07:54;;;;;;;16.55;8.82;;;8.90;99.90;;;;;;5052506;28;20044;-89
2021/12/14 13:10:27;;;;;;;16.80;9.23;;;8.90;99.90;;;;;;5071459;28;20040;-89
2021/12/14 13:13:05;;;;;;;11.18;8.35;;;8.90;99.90;;;;;;5052912;28;20121;-89
2021/12/14 13:15:49;;;;;;;12.48;8.35;;;9.00;99.90;;;;;;5071943;28;20103;-89
2021/12/14 13:18:34;;;;;;;12.77;8.45;;;9.00;99.90;;;;;;5070946;28;20039;-89
2021/12/14 13:21:25;;;;;;;11.20;8.27;;;8.90;99.90;;;;;;5070868;28;20385;-88
2021/12/14 13:24:23;;;;;;;11.07;7.50;;;9.00;99.90;;;;;;5066254;28;20064;-89
2021/12/14 13:27:09;;;;;;;9.35;7.13;;;9.00;99.90;;;;;;5056036;28;20032;-89
2021/12/14 13:29:44;;;;;;;10.20;6.90;;;9.20;99.90;;;;;;5052520;28;20411;-89
2021/12/14 13:32:12;;;;;;;10.38;8.38;;;9.30;99.90;;;;;;5070429;28;20427;-90
2021/12/14 13:35:07;;;;;;;10.80;7.30;;;9.40;99.90;;;;;;5070554;28;20025;-89
2021/12/14 13:37:39;;;;;;;9.23;7.18;;;9.50;99.90;;;;;;5052794;28;20024;-89
2021/12/14 13:40:39;;;;;;;10.23;7.35;;;9.60;99.90;;;;;;5052836;28;20024;-89
2021/12/14 13:43:14;;;;;;;12.68;8.65;;;9.60;99.90;;;;;;5027945;28;20121;-89
2021/12/14 13:45:45;;;;;;;14.07;9.45;;;9.40;99.90;;;;;;5070595;28;20033;-89
2021/12/14 13:48:14;;;;;;;11.32;8.50;;;9.30;99.90;;;;;;5070419;28;20516;-89
2021/12/14 13:50:45;;;;;;;11.95;9.77;;;9.40;99.90;;;;;;5070714;28;20036;-89
2021/12/14 13:53:11;;;;;;;14.23;9.48;;;9.40;99.90;;;;;;5051723;28;20029;-89
2021/12/14 13:55:46;;;;;;;10.45;8.55;;;9.60;99.90;;;;;;5051568;28;20012;-89